Airfield :
LOGIN :

Register | Disclaimer

   EN    FR    IT 

 










Legend :    VFR   Marginal VFR   IFR   Intensive IFR   Very Intensive IFR
Visi :
Ceiling :
>= 8 km
>= 3000ft
5 to 8 km
1000 to 3000 ft
1500m to 5 km
500 to 1000 ft
800 to 1500m
200 to 500 ft
< 800m
< 200 ft
Symbols :   Thunderstorms  Fog  Heavy snow  Heavy precipitations  Wind > 20 kt
SIGMETs :     Misc.  Thunderstorms  Icing  Turbulence  Mountain Waves  Volcanic Ashes







- Airport Elevation : 26 ft
- IATA code : GLA
- Download approach charts


EGPF - Glasgow

CURRENT METAR :
  • 220850Z AUTO 02004KT 9999 OVC044 03/00 Q1025

EXPIRED METARs :
  • 220820Z AUTO 04005KT 9999 OVC044 02/00 Q1025
  • 220750Z AUTO 06006KT 9999 OVC047 02/00 Q1024
  • 220720Z AUTO 05006KT 9999 OVC047 02/M00 Q1024
  • 220650Z AUTO 05006KT 9999 OVC047 02/00 Q1024
  • 220620Z AUTO 04005KT 9999 BKN048 01/M01 Q1024
  • 220550Z AUTO 05005KT 9999 NCD 02/M00 Q1024

TAF TAF EGPF
Valid from the 22 at 06:00 until the 23 at 06:00 UTC


220501Z 2206/2306 VRB05KT 9999 SCT035
PROB30
TEMPO 2206/2209 4000 BR BKN012
BECMG 2210/2213 18010KT
ATIS : +44 141 887 7449
No reported NOTAMs for that airfield.



MET'MAP, your aeronautical weather chart ! - Copyright ORBIFLY December 2007 - Disclaimer

ORBIFLY MET'MAP TEAM :

Programming & Development : Alexandra Zaïnal
Concept & Development : Baudouin d'Aumeries
Co-Development & Prog : Marc-Olivier Méhu
Technical & hardware support : Manuel Goepfert

Contact : metmap@orbifly.com




SOURCES & CREDITS :

   NOAA